createdAt,value
2023-05-15T00:01:28.134Z,64.87
2023-05-15T00:03:54.241Z,64.98
2023-05-15T00:06:20.383Z,64.95
2023-05-15T00:08:46.498Z,64.93
2023-05-15T00:11:12.602Z,64.95
2023-05-15T00:13:38.698Z,64.84
2023-05-15T00:16:04.870Z,64.95
2023-05-15T00:18:31.018Z,64.92
2023-05-15T00:20:57.173Z,64.96
2023-05-15T00:23:23.299Z,65.05
2023-05-15T00:25:49.382Z,65.02
2023-05-15T00:28:15.491Z,65.05
2023-05-15T00:30:41.636Z,64.92
2023-05-15T00:33:07.758Z,65.06
2023-05-15T00:35:33.852Z,64.82
2023-05-15T00:37:59.962Z,64.92
2023-05-15T00:40:26.112Z,65.05
2023-05-15T00:42:52.216Z,65.10
2023-05-15T00:45:18.330Z,65.00
2023-05-15T00:47:44.455Z,65.13
2023-05-15T00:50:10.583Z,64.98
2023-05-15T00:52:36.735Z,64.94
2023-05-15T00:55:02.849Z,65.01
2023-05-15T00:57:28.936Z,65.09
2023-05-15T00:59:55.048Z,65.01
2023-05-15T01:02:21.281Z,65.13
2023-05-15T01:04:47.433Z,64.95
2023-05-15T01:07:13.559Z,64.95
2023-05-15T01:09:39.646Z,65.00
2023-05-15T01:12:05.748Z,64.88
2023-05-15T01:14:31.864Z,64.99
2023-05-15T01:16:57.959Z,65.11
2023-05-15T01:19:24.133Z,65.04
2023-05-15T01:21:50.332Z,64.97
2023-05-15T01:24:16.441Z,65.10
2023-05-15T01:26:42.553Z,64.97
2023-05-15T01:29:08.665Z,65.10
2023-05-15T01:31:34.797Z,65.15
2023-05-15T01:34:00.913Z,65.03
2023-05-15T01:36:27.014Z,64.98
2023-05-15T01:38:53.149Z,64.99
2023-05-15T01:41:19.268Z,64.99
2023-05-15T01:43:45.381Z,65.06
2023-05-15T01:46:11.513Z,65.10
2023-05-15T01:48:37.645Z,64.95
2023-05-15T01:51:03.776Z,65.13
2023-05-15T01:53:29.888Z,64.97
2023-05-15T01:55:55.993Z,65.02
2023-05-15T01:58:22.111Z,65.05
2023-05-15T02:00:48.220Z,64.97
2023-05-15T02:03:14.373Z,65.01
2023-05-15T02:05:40.976Z,64.98
2023-05-15T02:08:07.058Z,65.14
2023-05-15T02:10:33.157Z,65.00
2023-05-15T02:12:59.266Z,64.97
2023-05-15T02:15:25.560Z,65.03
2023-05-15T02:17:51.967Z,64.96
2023-05-15T02:20:18.116Z,65.11
2023-05-15T02:22:44.233Z,65.16
2023-05-15T02:25:10.349Z,65.14
2023-05-15T02:27:36.485Z,65.00
2023-05-15T02:30:02.570Z,65.01
2023-05-15T02:32:28.695Z,64.77
2023-05-15T02:34:54.837Z,65.04
2023-05-15T02:37:20.956Z,64.96
2023-05-15T02:39:47.127Z,65.02
2023-05-15T02:42:13.254Z,64.96
2023-05-15T02:44:39.359Z,64.97
2023-05-15T02:47:05.442Z,64.98
2023-05-15T02:49:31.569Z,65.05
2023-05-15T02:51:57.654Z,65.00
2023-05-15T02:54:23.744Z,65.05
2023-05-15T02:56:49.932Z,64.99
2023-05-15T02:59:16.022Z,65.03
2023-05-15T03:01:42.213Z,64.99
2023-05-15T03:04:08.402Z,64.95
2023-05-15T03:06:34.513Z,64.98
2023-05-15T03:09:00.618Z,65.16
2023-05-15T03:11:26.745Z,65.19
2023-05-15T03:13:52.846Z,65.00
2023-05-15T03:16:19.052Z,65.05
2023-05-15T03:18:45.256Z,65.05
2023-05-15T03:21:11.375Z,65.16
2023-05-15T03:23:37.983Z,64.97
2023-05-15T03:26:04.327Z,64.99
2023-05-15T03:28:30.420Z,65.00
2023-05-15T03:30:56.534Z,65.01
2023-05-15T03:33:22.651Z,64.98
2023-05-15T03:35:48.787Z,65.13
2023-05-15T03:38:17.229Z,64.94
2023-05-15T03:40:43.517Z,64.98
2023-05-15T03:43:09.666Z,65.03
2023-05-15T03:45:35.773Z,65.09
2023-05-15T03:48:01.942Z,65.17
2023-05-15T03:50:28.071Z,65.15
2023-05-15T03:52:54.171Z,64.97
2023-05-15T03:55:20.290Z,64.97
2023-05-15T03:57:46.385Z,64.98
2023-05-15T04:00:12.487Z,64.94
2023-05-15T04:02:38.764Z,65.23
2023-05-15T04:05:04.948Z,65.01
2023-05-15T04:07:31.087Z,64.96
2023-05-15T04:09:57.301Z,64.95
2023-05-15T04:12:23.414Z,65.02
2023-05-15T04:14:49.528Z,65.12
2023-05-15T04:17:15.668Z,64.95
2023-05-15T04:19:43.034Z,65.06
2023-05-15T04:22:09.296Z,64.91
2023-05-15T04:24:35.416Z,64.89
2023-05-15T04:27:01.578Z,65.09
2023-05-15T04:29:27.749Z,64.97
2023-05-15T04:31:53.882Z,65.01
2023-05-15T04:34:19.982Z,64.88
2023-05-15T04:36:46.072Z,64.88
2023-05-15T04:39:12.188Z,65.05
2023-05-15T04:41:38.279Z,64.98
2023-05-15T04:44:04.389Z,65.03
2023-05-15T04:46:30.642Z,64.91
2023-05-15T04:48:56.852Z,64.85
2023-05-15T04:51:22.973Z,65.03
2023-05-15T04:53:49.105Z,64.97
2023-05-15T04:56:15.219Z,65.08
2023-05-15T04:58:41.316Z,65.06
2023-05-15T05:01:07.460Z,64.87
2023-05-15T05:03:33.617Z,64.98
2023-05-15T05:05:59.727Z,64.99
2023-05-15T05:08:25.843Z,64.90
2023-05-15T05:10:51.940Z,64.97
2023-05-15T05:13:18.064Z,64.97
2023-05-15T05:15:44.238Z,64.87
2023-05-15T05:18:10.467Z,64.96
2023-05-15T05:20:36.587Z,64.97
2023-05-15T05:23:02.701Z,64.91
2023-05-15T05:25:28.811Z,64.96
2023-05-15T05:27:54.914Z,64.77
2023-05-15T05:30:21.029Z,64.84
2023-05-15T05:32:47.236Z,64.82
2023-05-15T05:35:13.415Z,64.83
2023-05-15T05:37:41.235Z,64.85
2023-05-15T05:40:07.674Z,64.99
2023-05-15T05:42:33.754Z,64.93
2023-05-15T05:44:59.865Z,64.84
2023-05-15T05:47:26.034Z,64.89
2023-05-15T05:49:52.178Z,64.88
2023-05-15T05:52:18.285Z,64.85
2023-05-15T05:54:44.385Z,64.82
2023-05-15T05:57:10.513Z,64.81
2023-05-15T05:59:36.644Z,64.80
2023-05-15T06:02:02.762Z,64.94
2023-05-15T06:04:28.987Z,64.82
2023-05-15T06:06:55.276Z,64.81
2023-05-15T06:09:21.381Z,64.86
2023-05-15T06:11:47.477Z,64.86
2023-05-15T06:14:13.605Z,64.87
2023-05-15T06:16:39.736Z,64.87
2023-05-15T06:19:05.906Z,64.95
2023-05-15T06:21:32.284Z,64.96
2023-05-15T06:23:58.403Z,64.79
2023-05-15T06:26:24.511Z,64.84
2023-05-15T06:28:50.632Z,64.84
2023-05-15T06:31:16.733Z,64.81
2023-05-15T06:33:42.859Z,64.90
2023-05-15T06:36:08.997Z,64.92
2023-05-15T06:38:35.141Z,64.73
2023-05-15T06:41:01.254Z,64.89
2023-05-15T06:43:27.386Z,64.57
2023-05-15T06:45:53.520Z,64.60
2023-05-15T06:48:19.733Z,64.74
2023-05-15T06:50:45.895Z,64.87
2023-05-15T06:53:14.181Z,64.88
2023-05-15T06:55:40.679Z,64.72
2023-05-15T06:58:06.794Z,64.81
2023-05-15T07:00:32.900Z,64.71
2023-05-15T07:02:59.064Z,64.77
2023-05-15T07:05:25.432Z,64.81
2023-05-15T07:07:51.738Z,64.73
2023-05-15T07:10:17.835Z,64.82
2023-05-15T07:12:44.024Z,64.77
2023-05-15T07:15:10.121Z,64.69
2023-05-15T07:17:36.269Z,64.76
2023-05-15T07:20:02.567Z,64.70
2023-05-15T07:22:28.718Z,64.72
2023-05-15T07:24:54.836Z,64.76
2023-05-15T07:27:20.950Z,64.70
2023-05-15T07:29:47.061Z,64.72
2023-05-15T07:32:13.155Z,64.80
2023-05-15T07:34:39.279Z,64.89
2023-05-15T07:37:05.369Z,64.80
2023-05-15T07:39:31.492Z,64.83
2023-05-15T07:41:57.653Z,64.68
2023-05-15T07:44:23.745Z,64.76
2023-05-15T07:46:49.836Z,64.77
2023-05-15T07:49:15.981Z,64.77
2023-05-15T07:51:42.091Z,64.89
2023-05-15T07:54:08.198Z,64.72
2023-05-15T07:56:36.006Z,64.63
2023-05-15T07:59:02.165Z,64.65
2023-05-15T08:01:30.592Z,64.77
2023-05-15T08:03:57.526Z,64.65
2023-05-15T08:06:23.649Z,64.61
2023-05-15T08:08:49.731Z,64.76
2023-05-15T08:11:15.851Z,64.57
2023-05-15T08:13:41.959Z,64.72
2023-05-15T08:16:08.160Z,64.57
2023-05-15T08:18:34.481Z,64.57
2023-05-15T08:21:01.585Z,64.58
2023-05-15T08:23:29.008Z,64.63
2023-05-15T08:25:55.158Z,64.54
2023-05-15T08:28:21.277Z,64.57
2023-05-15T08:30:47.360Z,64.53
2023-05-15T08:33:13.472Z,64.35
2023-05-15T08:35:39.624Z,64.66
2023-05-15T08:38:05.760Z,64.49
2023-05-15T08:40:39.009Z,64.54
2023-05-15T08:43:06.269Z,64.64
2023-05-15T08:45:32.370Z,64.54
2023-05-15T08:47:58.622Z,64.49
2023-05-15T08:50:24.914Z,64.62
2023-05-15T08:52:51.020Z,64.47
2023-05-15T08:55:17.135Z,64.42
2023-05-15T08:57:43.256Z,64.56
2023-05-15T09:00:09.487Z,64.59
2023-05-15T09:02:35.712Z,64.63
2023-05-15T09:05:01.853Z,64.69
2023-05-15T09:07:27.956Z,64.63
2023-05-15T09:09:54.059Z,64.61
2023-05-15T09:12:20.177Z,64.57
2023-05-15T09:14:46.308Z,64.64
2023-05-15T09:17:12.427Z,64.58
2023-05-15T09:19:38.562Z,64.48
2023-05-15T09:22:04.783Z,64.57
2023-05-15T09:24:30.895Z,64.57
2023-05-15T09:26:56.997Z,64.61
2023-05-15T09:29:23.121Z,64.51
2023-05-15T09:31:49.280Z,64.51
2023-05-15T09:34:15.407Z,64.49
2023-05-15T09:36:41.528Z,64.55
2023-05-15T09:39:07.665Z,64.57
2023-05-15T09:41:33.811Z,64.50
2023-05-15T09:43:59.945Z,64.60
2023-05-15T09:46:26.114Z,64.66
2023-05-15T09:48:52.236Z,64.54
2023-05-15T09:51:18.379Z,64.53
2023-05-15T09:53:44.476Z,64.59
2023-05-15T09:56:10.610Z,64.55
2023-05-15T09:58:36.723Z,64.63
2023-05-15T10:01:02.906Z,64.54
2023-05-15T10:03:29.177Z,64.46
2023-05-15T10:05:55.356Z,64.59
2023-05-15T10:08:21.479Z,64.56
2023-05-15T10:10:47.576Z,64.43
2023-05-15T10:13:13.704Z,64.54
2023-05-15T10:15:39.907Z,64.52
2023-05-15T10:18:06.157Z,64.43
2023-05-15T10:20:32.387Z,64.52
2023-05-15T10:22:58.491Z,64.33
2023-05-15T10:25:24.579Z,64.58
2023-05-15T10:27:50.704Z,64.51
2023-05-15T10:30:16.824Z,64.42
2023-05-15T10:32:42.945Z,64.51
2023-05-15T10:35:09.108Z,64.40
2023-05-15T10:37:35.258Z,64.50
2023-05-15T10:40:01.396Z,64.35
2023-05-15T10:42:27.527Z,64.42
2023-05-15T10:44:53.623Z,64.64
2023-05-15T10:47:19.798Z,64.57
2023-05-15T10:49:45.939Z,64.41
2023-05-15T10:52:12.043Z,64.56
2023-05-15T10:54:38.155Z,64.54
2023-05-15T10:57:04.301Z,64.40
2023-05-15T10:59:30.390Z,64.51
2023-05-15T11:01:56.496Z,64.27
2023-05-15T11:04:22.721Z,64.35
2023-05-15T11:06:48.870Z,64.33
2023-05-15T11:09:15.002Z,64.34
2023-05-15T11:11:41.110Z,64.27
2023-05-15T11:14:07.226Z,64.49
2023-05-15T11:16:33.383Z,64.32
2023-05-15T11:18:59.622Z,64.38
2023-05-15T11:21:25.731Z,64.54
2023-05-15T11:23:51.822Z,64.35
2023-05-15T11:26:17.987Z,64.30
2023-05-15T11:28:44.091Z,64.44
2023-05-15T11:31:10.219Z,64.43
2023-05-15T11:33:36.517Z,64.28
2023-05-15T11:36:02.687Z,64.31
2023-05-15T11:38:28.790Z,64.33
2023-05-15T11:40:54.940Z,64.42
2023-05-15T11:43:21.110Z,64.47
2023-05-15T11:45:47.218Z,64.30
2023-05-15T11:48:13.438Z,64.44
2023-05-15T11:50:39.810Z,64.32
2023-05-15T11:53:05.949Z,64.33
2023-05-15T11:55:32.073Z,64.34
2023-05-15T11:57:58.193Z,64.39
2023-05-15T12:00:24.429Z,64.46
2023-05-15T12:02:50.742Z,64.35
2023-05-15T12:05:16.916Z,64.25
2023-05-15T12:07:43.021Z,64.28
2023-05-15T12:10:09.131Z,64.36
2023-05-15T12:12:35.239Z,64.33
2023-05-15T12:15:01.326Z,64.28
2023-05-15T12:17:27.460Z,64.24
2023-05-15T12:19:53.586Z,64.18
2023-05-15T12:22:19.678Z,64.37
2023-05-15T12:24:45.810Z,64.33
2023-05-15T12:27:11.929Z,64.28
2023-05-15T12:29:38.029Z,64.35
2023-05-15T12:32:04.266Z,64.18
2023-05-15T12:34:30.383Z,64.15
2023-05-15T12:36:56.475Z,64.20
2023-05-15T12:39:22.587Z,64.24
2023-05-15T12:41:49.728Z,64.17
2023-05-15T12:44:15.979Z,64.22
2023-05-15T12:46:42.300Z,64.15
2023-05-15T12:49:08.615Z,64.30
2023-05-15T12:51:34.705Z,64.08
2023-05-15T12:54:00.805Z,64.19
2023-05-15T12:56:26.914Z,64.03
2023-05-15T12:58:53.030Z,64.21
2023-05-15T13:01:19.197Z,64.04
2023-05-15T13:03:45.717Z,64.03
2023-05-15T13:06:11.914Z,64.11
2023-05-15T13:08:38.034Z,64.26
2023-05-15T13:11:04.127Z,64.11
2023-05-15T13:13:30.229Z,64.08
2023-05-15T13:15:56.396Z,64.24
2023-05-15T13:18:22.555Z,64.21
2023-05-15T13:20:48.678Z,64.06
2023-05-15T13:23:14.833Z,64.08
2023-05-15T13:25:40.954Z,64.06
2023-05-15T13:28:07.085Z,64.20
2023-05-15T13:30:33.230Z,64.06
2023-05-15T13:32:59.453Z,64.00
2023-05-15T13:35:25.648Z,64.02
2023-05-15T13:37:51.776Z,64.12
2023-05-15T13:40:17.880Z,64.06
2023-05-15T13:42:43.983Z,63.97
2023-05-15T13:45:10.106Z,63.93
2023-05-15T13:47:36.478Z,63.97
2023-05-15T13:50:02.770Z,64.07
2023-05-15T13:52:29.057Z,64.00
2023-05-15T13:54:55.166Z,64.06
2023-05-15T13:57:21.272Z,64.02
2023-05-15T13:59:47.412Z,63.94
2023-05-15T14:02:13.522Z,63.96
2023-05-15T14:04:39.629Z,63.89
2023-05-15T14:07:05.745Z,64.01
2023-05-15T14:09:31.965Z,63.83
2023-05-15T14:11:58.062Z,63.81
2023-05-15T14:14:24.190Z,63.85
2023-05-15T14:16:50.442Z,63.82
2023-05-15T14:19:16.676Z,63.94
2023-05-15T14:21:42.888Z,63.85
2023-05-15T14:24:08.999Z,63.94
2023-05-15T14:26:35.087Z,64.04
2023-05-15T14:29:01.209Z,63.88
2023-05-15T14:31:27.341Z,63.88
2023-05-15T14:33:53.454Z,64.01
2023-05-15T14:36:19.691Z,63.91
2023-05-15T14:38:45.783Z,63.99
2023-05-15T14:41:11.902Z,63.93
2023-05-15T14:43:38.104Z,63.79
2023-05-15T14:46:04.302Z,63.96
2023-05-15T14:48:30.442Z,63.89
2023-05-15T14:50:56.630Z,63.81
2023-05-15T14:53:22.714Z,63.83
2023-05-15T14:55:48.851Z,64.03
2023-05-15T14:58:15.170Z,63.94
2023-05-15T15:00:41.288Z,63.93
2023-05-15T15:03:07.562Z,64.08
2023-05-15T15:05:33.726Z,63.96
2023-05-15T15:07:59.842Z,64.10
2023-05-15T15:10:26.145Z,63.93
2023-05-15T15:12:52.336Z,63.94
2023-05-15T15:15:18.429Z,63.94
2023-05-15T15:17:44.573Z,64.03
2023-05-15T15:20:10.870Z,63.96
2023-05-15T15:22:37.034Z,63.93
2023-05-15T15:25:03.157Z,64.09
2023-05-15T15:27:29.276Z,63.98
2023-05-15T15:29:55.382Z,64.11
2023-05-15T15:32:21.627Z,63.99
2023-05-15T15:34:47.752Z,64.14
2023-05-15T15:37:13.857Z,63.99
2023-05-15T15:39:39.952Z,64.16
2023-05-15T15:42:06.134Z,63.99
2023-05-15T15:44:32.257Z,64.04
2023-05-15T15:46:58.366Z,64.18
2023-05-15T15:49:24.469Z,64.08
2023-05-15T15:51:50.582Z,64.21
2023-05-15T15:54:16.679Z,64.27
2023-05-15T15:56:42.816Z,64.28
2023-05-15T15:59:08.944Z,64.27
2023-05-15T16:01:35.111Z,64.21
2023-05-15T16:04:01.295Z,64.26
2023-05-15T16:06:27.428Z,64.30
2023-05-15T16:08:53.573Z,64.32
2023-05-15T16:11:19.711Z,64.19
2023-05-15T16:13:45.803Z,64.33
2023-05-15T16:16:12.032Z,64.38
2023-05-15T16:18:38.236Z,64.23
2023-05-15T16:21:04.349Z,64.26
2023-05-15T16:23:30.462Z,64.31
2023-05-15T16:25:56.582Z,64.31
2023-05-15T16:28:22.670Z,64.36
2023-05-15T16:30:50.005Z,64.23
2023-05-15T16:33:16.372Z,64.25
2023-05-15T16:35:42.556Z,64.29
2023-05-15T16:38:08.720Z,64.30
2023-05-15T16:40:34.934Z,64.34
2023-05-15T16:43:01.031Z,64.28
2023-05-15T16:45:27.153Z,64.39
2023-05-15T16:47:53.343Z,64.34
2023-05-15T16:50:19.452Z,64.33
2023-05-15T16:52:45.744Z,64.32
2023-05-15T16:55:11.960Z,64.50
2023-05-15T16:57:38.064Z,64.53
2023-05-15T17:00:04.165Z,64.41
2023-05-15T17:02:30.417Z,64.53
2023-05-15T17:04:56.624Z,64.55
2023-05-15T17:07:22.741Z,64.58
2023-05-15T17:09:48.862Z,64.50
2023-05-15T17:12:14.965Z,64.59
2023-05-15T17:14:41.046Z,64.61
2023-05-15T17:17:07.183Z,64.51
2023-05-15T17:19:33.274Z,64.64
2023-05-15T17:21:59.557Z,64.50
2023-05-15T17:24:28.791Z,64.63
2023-05-15T17:27:01.594Z,64.73
2023-05-15T17:29:27.711Z,64.68
2023-05-15T17:31:53.851Z,64.71
2023-05-15T17:34:20.017Z,64.74
2023-05-15T17:36:46.191Z,64.64
2023-05-15T17:39:12.295Z,64.65
2023-05-15T17:41:38.410Z,64.58
2023-05-15T17:44:04.547Z,64.58
2023-05-15T17:46:30.676Z,64.60
2023-05-15T17:48:56.802Z,64.63
2023-05-15T17:51:23.012Z,64.68
2023-05-15T17:53:49.117Z,64.76
2023-05-15T17:56:15.212Z,64.69
2023-05-15T17:58:41.333Z,64.75
2023-05-15T18:01:07.440Z,64.73
2023-05-15T18:03:33.677Z,64.67
2023-05-15T18:05:59.895Z,64.72
2023-05-15T18:08:25.979Z,64.63
2023-05-15T18:10:52.084Z,64.61
2023-05-15T18:13:18.190Z,64.53
2023-05-15T18:15:44.320Z,64.53
2023-05-15T18:18:10.483Z,64.57
2023-05-15T18:20:36.686Z,64.47
2023-05-15T18:23:02.801Z,64.52
2023-05-15T18:25:29.041Z,64.34
2023-05-15T18:27:55.191Z,64.60
2023-05-15T18:30:21.283Z,64.51
2023-05-15T18:32:47.411Z,64.44
2023-05-15T18:35:13.566Z,64.55
2023-05-15T18:37:39.680Z,64.45
2023-05-15T18:40:05.803Z,64.38
2023-05-15T18:42:31.937Z,64.44
2023-05-15T18:44:58.051Z,64.56
2023-05-15T18:47:24.135Z,64.49
2023-05-15T18:49:50.314Z,64.54
2023-05-15T18:52:16.678Z,64.59
2023-05-15T18:54:42.809Z,64.61
2023-05-15T18:57:08.929Z,64.50
2023-05-15T18:59:35.035Z,64.69
2023-05-15T19:02:01.169Z,64.67
2023-05-15T19:04:27.347Z,64.75
2023-05-15T19:06:53.461Z,64.68
2023-05-15T19:09:19.544Z,64.68
2023-05-15T19:11:45.652Z,64.69
2023-05-15T19:14:11.737Z,64.56
2023-05-15T19:16:37.878Z,64.62
2023-05-15T19:19:04.073Z,64.72
2023-05-15T19:21:30.188Z,64.64
2023-05-15T19:23:56.275Z,64.60
2023-05-15T19:26:22.393Z,64.73
2023-05-15T19:28:48.487Z,64.63
2023-05-15T19:31:30.199Z,64.73
2023-05-15T19:33:57.829Z,64.81
2023-05-15T19:36:24.168Z,64.73
2023-05-15T19:38:50.327Z,64.74
2023-05-15T19:41:16.463Z,64.66
2023-05-15T19:43:42.568Z,64.62
2023-05-15T19:46:08.704Z,64.73
2023-05-15T19:48:34.856Z,64.68
2023-05-15T19:51:00.961Z,64.81
2023-05-15T19:53:27.135Z,64.78
2023-05-15T19:55:53.345Z,64.62
2023-05-15T19:58:22.135Z,64.71
2023-05-15T20:00:48.450Z,64.64
2023-05-15T20:03:14.769Z,64.88
2023-05-15T20:05:40.948Z,64.73
2023-05-15T20:08:07.039Z,64.67
2023-05-15T20:10:33.151Z,64.68
2023-05-15T20:12:59.316Z,64.70
2023-05-15T20:15:25.415Z,64.55
2023-05-15T20:17:51.592Z,64.61
2023-05-15T20:20:17.713Z,64.57
2023-05-15T20:22:43.808Z,64.67
2023-05-15T20:25:09.934Z,64.69
2023-05-15T20:27:36.031Z,64.89
2023-05-15T20:30:02.145Z,64.63
2023-05-15T20:32:28.368Z,64.70
2023-05-15T20:34:54.513Z,64.45
2023-05-15T20:37:20.607Z,64.64
2023-05-15T20:39:46.729Z,64.43
2023-05-15T20:42:12.830Z,64.54
2023-05-15T20:44:38.922Z,64.39
2023-05-15T20:47:05.048Z,64.35
2023-05-15T20:49:31.164Z,64.36
2023-05-15T20:51:57.246Z,64.55
2023-05-15T20:54:23.355Z,64.48
2023-05-15T20:56:49.449Z,64.56
2023-05-15T20:59:15.558Z,64.49
2023-05-15T21:01:41.798Z,64.47
2023-05-15T21:04:08.091Z,64.61
2023-05-15T21:06:34.383Z,64.63
2023-05-15T21:09:00.536Z,64.57
2023-05-15T21:11:26.661Z,64.31
2023-05-15T21:13:52.775Z,64.44
2023-05-15T21:16:18.941Z,64.41
2023-05-15T21:18:45.068Z,64.64
2023-05-15T21:21:11.196Z,64.44
2023-05-15T21:23:37.345Z,64.43
2023-05-15T21:26:03.469Z,64.64
2023-05-15T21:28:29.558Z,64.61
2023-05-15T21:30:55.704Z,64.57
2023-05-15T21:33:21.846Z,64.45
2023-05-15T21:35:47.942Z,64.51
2023-05-15T21:38:14.065Z,64.56
2023-05-15T21:40:40.166Z,64.34
2023-05-15T21:43:06.277Z,64.49
2023-05-15T21:45:32.395Z,64.48
2023-05-15T21:47:58.614Z,64.38
2023-05-15T21:50:24.964Z,64.33
2023-05-15T21:52:51.269Z,64.62
2023-05-15T21:55:17.368Z,64.57
2023-05-15T21:57:43.478Z,64.57
2023-05-15T22:00:09.599Z,64.54
2023-05-15T22:02:35.777Z,64.46
2023-05-15T22:05:01.986Z,64.38
2023-05-15T22:07:28.121Z,64.41
2023-05-15T22:09:54.228Z,64.40
2023-05-15T22:12:20.366Z,64.47
2023-05-15T22:14:57.523Z,64.61
2023-05-15T22:17:24.772Z,64.55
2023-05-15T22:19:50.919Z,64.42
2023-05-15T22:22:17.013Z,64.41
2023-05-15T22:24:43.119Z,64.52
2023-05-15T22:27:09.240Z,64.38
2023-05-15T22:29:35.382Z,64.48
2023-05-15T22:32:01.569Z,64.50
2023-05-15T22:34:27.702Z,64.39
2023-05-15T22:39:24.811Z,64.42
2023-05-15T22:41:50.930Z,64.44
2023-05-15T22:44:17.031Z,64.38
2023-05-15T22:46:43.120Z,64.76
2023-05-15T22:49:09.345Z,64.60
2023-05-15T22:51:35.446Z,64.54
2023-05-15T22:54:01.533Z,64.42
2023-05-15T22:56:27.652Z,64.24
2023-05-15T22:58:53.740Z,64.41
2023-05-15T23:01:19.843Z,64.58
2023-05-15T23:03:46.086Z,64.53
2023-05-15T23:06:12.253Z,64.55
2023-05-15T23:08:38.345Z,64.43
2023-05-15T23:11:04.518Z,64.35
2023-05-15T23:13:30.617Z,64.49
2023-05-15T23:15:56.760Z,64.58
2023-05-15T23:18:22.910Z,64.48
2023-05-15T23:20:49.000Z,64.44
2023-05-15T23:23:15.138Z,64.31
2023-05-15T23:25:41.257Z,64.36
2023-05-15T23:28:07.348Z,64.53
2023-05-15T23:30:33.436Z,64.38
2023-05-15T23:32:59.628Z,64.37
2023-05-15T23:35:25.790Z,64.39
2023-05-15T23:37:51.889Z,64.35
2023-05-15T23:40:18.020Z,64.48
2023-05-15T23:42:44.128Z,64.36
2023-05-15T23:45:10.204Z,64.33
2023-05-15T23:47:36.359Z,64.31
2023-05-15T23:50:02.490Z,64.63
2023-05-15T23:52:28.615Z,64.33
2023-05-15T23:54:54.739Z,64.30
2023-05-15T23:57:20.843Z,64.31
2023-05-15T23:59:46.930Z,64.27
